sensor_id;sensor_type;location;lat;lon;timestamp;P1;durP1;ratioP1;P2;durP2;ratioP2
40623;SDS011;26325;48.594;11.650;2023-05-14T00:02:01;6.82;;;6.22;;
40623;SDS011;26325;48.594;11.650;2023-05-14T00:04:27;6.55;;;6.03;;
40623;SDS011;26325;48.594;11.650;2023-05-14T00:09:18;6.78;;;6.18;;
40623;SDS011;26325;48.594;11.650;2023-05-14T00:14:09;6.68;;;6.07;;
40623;SDS011;26325;48.594;11.650;2023-05-14T00:19:00;6.78;;;6.22;;
40623;SDS011;26325;48.594;11.650;2023-05-14T00:23:53;6.07;;;5.50;;
40623;SDS011;26325;48.594;11.650;2023-05-14T00:26:21;6.05;;;5.50;;
40623;SDS011;26325;48.594;11.650;2023-05-14T00:28:47;5.95;;;5.45;;
40623;SDS011;26325;48.594;11.650;2023-05-14T00:33:38;6.10;;;5.60;;
40623;SDS011;26325;48.594;11.650;2023-05-14T00:38:34;5.72;;;5.22;;
40623;SDS011;26325;48.594;11.650;2023-05-14T00:43:25;5.95;;;5.45;;
40623;SDS011;26325;48.594;11.650;2023-05-14T00:48:19;5.63;;;5.22;;
40623;SDS011;26325;48.594;11.650;2023-05-14T00:50:48;5.95;;;5.45;;
40623;SDS011;26325;48.594;11.650;2023-05-14T00:53:14;5.53;;;5.13;;
40623;SDS011;26325;48.594;11.650;2023-05-14T00:55:41;6.10;;;5.47;;
40623;SDS011;26325;48.594;11.650;2023-05-14T00:58:12;6.40;;;5.80;;
40623;SDS011;26325;48.594;11.650;2023-05-14T01:00:38;5.90;;;5.50;;
40623;SDS011;26325;48.594;11.650;2023-05-14T01:03:07;5.53;;;5.13;;
40623;SDS011;26325;48.594;11.650;2023-05-14T01:08:58;5.93;;;5.43;;
40623;SDS011;26325;48.594;11.650;2023-05-14T01:11:41;5.95;;;5.40;;
40623;SDS011;26325;48.594;11.650;2023-05-14T01:14:33;5.97;;;5.57;;
40623;SDS011;26325;48.594;11.650;2023-05-14T01:17:05;6.28;;;5.47;;
40623;SDS011;26325;48.594;11.650;2023-05-14T01:19:42;5.50;;;5.00;;
40623;SDS011;26325;48.594;11.650;2023-05-14T01:22:09;6.25;;;5.75;;
40623;SDS011;26325;48.594;11.650;2023-05-14T01:24:36;6.88;;;6.30;;
40623;SDS011;26325;48.594;11.650;2023-05-14T01:30:06;6.35;;;5.85;;
40623;SDS011;26325;48.594;11.650;2023-05-14T01:32:38;5.57;;;5.18;;
40623;SDS011;26325;48.594;11.650;2023-05-14T01:35:05;6.35;;;5.72;;
40623;SDS011;26325;48.594;11.650;2023-05-14T01:37:32;6.30;;;5.70;;
40623;SDS011;26325;48.594;11.650;2023-05-14T01:42:23;5.70;;;5.30;;
40623;SDS011;26325;48.594;11.650;2023-05-14T01:44:50;5.40;;;5.00;;
40623;SDS011;26325;48.594;11.650;2023-05-14T01:49:41;7.00;;;6.40;;
40623;SDS011;26325;48.594;11.650;2023-05-14T01:54:37;5.85;;;5.38;;
40623;SDS011;26325;48.594;11.650;2023-05-14T01:57:03;6.82;;;6.25;;
40623;SDS011;26325;48.594;11.650;2023-05-14T02:01:54;6.70;;;6.10;;
40623;SDS011;26325;48.594;11.650;2023-05-14T02:04:20;7.45;;;6.70;;
40623;SDS011;26325;48.594;11.650;2023-05-14T02:09:11;7.13;;;6.53;;
40623;SDS011;26325;48.594;11.650;2023-05-14T02:14:02;7.40;;;6.80;;
40623;SDS011;26325;48.594;11.650;2023-05-14T02:18:55;7.22;;;6.63;;
40623;SDS011;26325;48.594;11.650;2023-05-14T02:21:21;7.63;;;6.93;;
40623;SDS011;26325;48.594;11.650;2023-05-14T02:26:13;7.70;;;7.10;;
40623;SDS011;26325;48.594;11.650;2023-05-14T02:31:04;7.40;;;6.80;;
40623;SDS011;26325;48.594;11.650;2023-05-14T02:35:55;7.38;;;6.78;;
40623;SDS011;26325;48.594;11.650;2023-05-14T02:38:21;7.15;;;6.55;;
40623;SDS011;26325;48.594;11.650;2023-05-14T02:40:47;7.10;;;6.53;;
40623;SDS011;26325;48.594;11.650;2023-05-14T02:45:38;6.95;;;6.45;;
40623;SDS011;26325;48.594;11.650;2023-05-14T02:50:32;6.80;;;6.30;;
40623;SDS011;26325;48.594;11.650;2023-05-14T02:55:23;7.68;;;7.07;;
40623;SDS011;26325;48.594;11.650;2023-05-14T02:57:52;7.00;;;6.40;;
40623;SDS011;26325;48.594;11.650;2023-05-14T03:00:18;6.75;;;6.25;;
40623;SDS011;26325;48.594;11.650;2023-05-14T03:05:09;7.22;;;6.63;;
40623;SDS011;26325;48.594;11.650;2023-05-14T03:07:37;7.50;;;6.80;;
40623;SDS011;26325;48.594;11.650;2023-05-14T03:12:28;7.25;;;6.65;;
40623;SDS011;26325;48.594;11.650;2023-05-14T03:17:19;6.90;;;6.30;;
40623;SDS011;26325;48.594;11.650;2023-05-14T03:22:13;7.20;;;6.70;;
40623;SDS011;26325;48.594;11.650;2023-05-14T03:24:41;6.93;;;6.43;;
40623;SDS011;26325;48.594;11.650;2023-05-14T03:27:06;6.38;;;5.88;;
40623;SDS011;26325;48.594;11.650;2023-05-14T03:31:57;6.53;;;5.95;;
40623;SDS011;26325;48.594;11.650;2023-05-14T03:34:23;6.75;;;6.25;;
40623;SDS011;26325;48.594;11.650;2023-05-14T03:36:49;6.53;;;5.95;;
40623;SDS011;26325;48.594;11.650;2023-05-14T03:41:45;6.18;;;5.57;;
40623;SDS011;26325;48.594;11.650;2023-05-14T03:44:11;6.15;;;5.65;;
40623;SDS011;26325;48.594;11.650;2023-05-14T03:46:37;6.57;;;6.07;;
40623;SDS011;26325;48.594;11.650;2023-05-14T03:51:29;5.95;;;5.45;;
40623;SDS011;26325;48.594;11.650;2023-05-14T03:53:58;5.97;;;5.47;;
40623;SDS011;26325;48.594;11.650;2023-05-14T03:56:24;5.82;;;5.38;;
40623;SDS011;26325;48.594;11.650;2023-05-14T03:58:51;5.90;;;5.40;;
40623;SDS011;26325;48.594;11.650;2023-05-14T04:01:17;6.25;;;5.75;;
40623;SDS011;26325;48.594;11.650;2023-05-14T04:06:11;6.10;;;5.60;;
40623;SDS011;26325;48.594;11.650;2023-05-14T04:08:37;6.25;;;5.75;;
40623;SDS011;26325;48.594;11.650;2023-05-14T04:13:28;6.03;;;5.55;;
40623;SDS011;26325;48.594;11.650;2023-05-14T04:18:24;6.63;;;6.00;;
40623;SDS011;26325;48.594;11.650;2023-05-14T04:23:16;5.68;;;5.18;;
40623;SDS011;26325;48.594;11.650;2023-05-14T04:25:42;5.95;;;5.45;;
40623;SDS011;26325;48.594;11.650;2023-05-14T04:30:33;6.15;;;5.65;;
40623;SDS011;26325;48.594;11.650;2023-05-14T04:33:02;5.22;;;4.78;;
40623;SDS011;26325;48.594;11.650;2023-05-14T04:35:28;5.80;;;5.40;;
40623;SDS011;26325;48.594;11.650;2023-05-14T04:40:20;5.20;;;4.80;;
40623;SDS011;26325;48.594;11.650;2023-05-14T04:42:46;5.78;;;5.38;;
40623;SDS011;26325;48.594;11.650;2023-05-14T04:47:38;5.88;;;5.38;;
40623;SDS011;26325;48.594;11.650;2023-05-14T04:50:04;5.72;;;5.22;;
40623;SDS011;26325;48.594;11.650;2023-05-14T04:52:31;6.07;;;5.57;;
40623;SDS011;26325;48.594;11.650;2023-05-14T04:54:57;5.57;;;5.15;;
40623;SDS011;26325;48.594;11.650;2023-05-14T04:59:48;6.13;;;5.57;;
40623;SDS011;26325;48.594;11.650;2023-05-14T05:07:09;5.32;;;4.85;;
40623;SDS011;26325;48.594;11.650;2023-05-14T05:09:35;5.93;;;5.43;;
40623;SDS011;26325;48.594;11.650;2023-05-14T05:12:01;5.43;;;5.03;;
40623;SDS011;26325;48.594;11.650;2023-05-14T05:16:52;4.97;;;4.57;;
40623;SDS011;26325;48.594;11.650;2023-05-14T05:21:45;5.55;;;5.05;;
40623;SDS011;26325;48.594;11.650;2023-05-14T05:24:17;5.45;;;5.03;;
40623;SDS011;26325;48.594;11.650;2023-05-14T05:26:44;4.78;;;4.38;;
40623;SDS011;26325;48.594;11.650;2023-05-14T05:29:12;5.32;;;4.90;;
40623;SDS011;26325;48.594;11.650;2023-05-14T05:31:41;5.28;;;4.75;;
40623;SDS011;26325;48.594;11.650;2023-05-14T05:34:06;4.82;;;4.43;;
40623;SDS011;26325;48.594;11.650;2023-05-14T05:39:00;4.63;;;4.28;;
40623;SDS011;26325;48.594;11.650;2023-05-14T05:41:28;5.05;;;4.65;;
40623;SDS011;26325;48.594;11.650;2023-05-14T05:43:55;4.90;;;4.50;;
40623;SDS011;26325;48.594;11.650;2023-05-14T05:46:21;5.47;;;5.07;;
40623;SDS011;26325;48.594;11.650;2023-05-14T05:51:18;4.70;;;4.40;;
40623;SDS011;26325;48.594;11.650;2023-05-14T05:56:10;4.90;;;4.47;;
40623;SDS011;26325;48.594;11.650;2023-05-14T06:01:01;4.75;;;4.45;;
40623;SDS011;26325;48.594;11.650;2023-05-14T06:05:52;4.70;;;4.30;;
40623;SDS011;26325;48.594;11.650;2023-05-14T06:10:51;4.80;;;4.40;;
40623;SDS011;26325;48.594;11.650;2023-05-14T06:13:24;4.95;;;4.55;;
40623;SDS011;26325;48.594;11.650;2023-05-14T06:15:49;3.97;;;3.67;;
40623;SDS011;26325;48.594;11.650;2023-05-14T06:20:40;5.07;;;4.60;;
40623;SDS011;26325;48.594;11.650;2023-05-14T06:25:54;4.57;;;4.28;;
40623;SDS011;26325;48.594;11.650;2023-05-14T06:28:19;5.00;;;4.60;;
40623;SDS011;26325;48.594;11.650;2023-05-14T06:33:18;5.05;;;4.65;;
40623;SDS011;26325;48.594;11.650;2023-05-14T06:36:03;4.53;;;4.22;;
40623;SDS011;26325;48.594;11.650;2023-05-14T06:38:29;5.22;;;4.72;;
40623;SDS011;26325;48.594;11.650;2023-05-14T06:43:21;5.53;;;5.03;;
40623;SDS011;26325;48.594;11.650;2023-05-14T06:48:16;5.13;;;4.72;;
40623;SDS011;26325;48.594;11.650;2023-05-14T06:50:46;6.30;;;5.78;;
40623;SDS011;26325;48.594;11.650;2023-05-14T06:53:12;6.40;;;5.90;;
40623;SDS011;26325;48.594;11.650;2023-05-14T06:58:09;5.97;;;5.47;;
40623;SDS011;26325;48.594;11.650;2023-05-14T07:00:35;5.95;;;5.45;;
40623;SDS011;26325;48.594;11.650;2023-05-14T07:05:28;7.35;;;6.75;;
40623;SDS011;26325;48.594;11.650;2023-05-14T07:10:19;7.55;;;6.95;;
40623;SDS011;26325;48.594;11.650;2023-05-14T07:15:10;8.02;;;7.43;;
40623;SDS011;26325;48.594;11.650;2023-05-14T07:20:04;8.02;;;7.40;;
40623;SDS011;26325;48.594;11.650;2023-05-14T07:22:30;7.65;;;7.05;;
40623;SDS011;26325;48.594;11.650;2023-05-14T07:27:21;7.90;;;7.30;;
40623;SDS011;26325;48.594;11.650;2023-05-14T07:32:16;8.15;;;7.35;;
40623;SDS011;26325;48.594;11.650;2023-05-14T07:34:42;9.50;;;8.70;;
40623;SDS011;26325;48.594;11.650;2023-05-14T07:37:10;9.27;;;8.55;;
40623;SDS011;26325;48.594;11.650;2023-05-14T07:42:04;8.63;;;7.88;;
40623;SDS011;26325;48.594;11.650;2023-05-14T07:44:29;7.85;;;7.22;;
40623;SDS011;26325;48.594;11.650;2023-05-14T07:49:25;6.55;;;6.05;;
40623;SDS011;26325;48.594;11.650;2023-05-14T07:51:51;6.70;;;6.20;;
40623;SDS011;26325;48.594;11.650;2023-05-14T07:56:42;6.53;;;6.05;;
40623;SDS011;26325;48.594;11.650;2023-05-14T07:59:08;6.80;;;6.30;;
40623;SDS011;26325;48.594;11.650;2023-05-14T08:03:59;5.95;;;5.55;;
40623;SDS011;26325;48.594;11.650;2023-05-14T08:06:25;5.15;;;4.75;;
40623;SDS011;26325;48.594;11.650;2023-05-14T08:08:52;5.60;;;5.20;;
40623;SDS011;26325;48.594;11.650;2023-05-14T08:13:46;4.43;;;4.13;;
40623;SDS011;26325;48.594;11.650;2023-05-14T08:18:37;4.10;;;3.80;;
40623;SDS011;26325;48.594;11.650;2023-05-14T08:21:03;4.30;;;4.00;;
40623;SDS011;26325;48.594;11.650;2023-05-14T08:23:28;4.28;;;3.97;;
40623;SDS011;26325;48.594;11.650;2023-05-14T08:28:19;3.90;;;3.60;;
40623;SDS011;26325;48.594;11.650;2023-05-14T08:30:45;4.25;;;3.85;;
40623;SDS011;26325;48.594;11.650;2023-05-14T08:33:11;4.20;;;3.90;;
40623;SDS011;26325;48.594;11.650;2023-05-14T08:35:36;4.60;;;4.30;;
40623;SDS011;26325;48.594;11.650;2023-05-14T08:38:02;4.15;;;3.85;;
40623;SDS011;26325;48.594;11.650;2023-05-14T08:40:27;4.35;;;4.05;;
40623;SDS011;26325;48.594;11.650;2023-05-14T08:42:53;4.20;;;3.90;;
40623;SDS011;26325;48.594;11.650;2023-05-14T08:45:24;4.50;;;4.10;;
40623;SDS011;26325;48.594;11.650;2023-05-14T08:47:58;3.75;;;3.45;;
40623;SDS011;26325;48.594;11.650;2023-05-14T08:50:25;3.75;;;3.53;;
40623;SDS011;26325;48.594;11.650;2023-05-14T08:52:54;4.10;;;3.80;;
40623;SDS011;26325;48.594;11.650;2023-05-14T08:55:20;4.00;;;3.70;;
40623;SDS011;26325;48.594;11.650;2023-05-14T08:57:46;3.33;;;3.13;;
40623;SDS011;26325;48.594;11.650;2023-05-14T09:00:13;4.05;;;3.70;;
40623;SDS011;26325;48.594;11.650;2023-05-14T09:05:06;3.38;;;3.08;;
40623;SDS011;26325;48.594;11.650;2023-05-14T09:07:35;3.63;;;3.30;;
40623;SDS011;26325;48.594;11.650;2023-05-14T09:10:01;4.00;;;3.55;;
40623;SDS011;26325;48.594;11.650;2023-05-14T09:12:28;3.97;;;3.67;;
40623;SDS011;26325;48.594;11.650;2023-05-14T09:17:20;3.60;;;3.30;;
40623;SDS011;26325;48.594;11.650;2023-05-14T09:22:16;3.92;;;3.63;;
40623;SDS011;26325;48.594;11.650;2023-05-14T09:24:43;3.47;;;3.20;;
40623;SDS011;26325;48.594;11.650;2023-05-14T09:27:14;4.15;;;3.67;;
40623;SDS011;26325;48.594;11.650;2023-05-14T09:29:46;3.30;;;3.10;;
40623;SDS011;26325;48.594;11.650;2023-05-14T09:32:12;3.70;;;3.40;;
40623;SDS011;26325;48.594;11.650;2023-05-14T09:37:06;4.82;;;3.63;;
40623;SDS011;26325;48.594;11.650;2023-05-14T09:39:36;3.80;;;3.42;;
40623;SDS011;26325;48.594;11.650;2023-05-14T09:42:02;3.67;;;3.45;;
40623;SDS011;26325;48.594;11.650;2023-05-14T09:44:28;3.28;;;3.08;;
40623;SDS011;26325;48.594;11.650;2023-05-14T09:49:22;4.05;;;3.80;;
40623;SDS011;26325;48.594;11.650;2023-05-14T09:51:50;3.70;;;3.50;;
40623;SDS011;26325;48.594;11.650;2023-05-14T09:54:16;3.83;;;3.53;;
40623;SDS011;26325;48.594;11.650;2023-05-14T09:59:09;3.20;;;3.00;;
40623;SDS011;26325;48.594;11.650;2023-05-14T10:04:06;3.20;;;3.00;;
40623;SDS011;26325;48.594;11.650;2023-05-14T10:06:36;3.13;;;2.92;;
40623;SDS011;26325;48.594;11.650;2023-05-14T10:09:07;2.97;;;2.78;;
40623;SDS011;26325;48.594;11.650;2023-05-14T10:11:37;3.00;;;2.80;;
40623;SDS011;26325;48.594;11.650;2023-05-14T10:14:15;3.47;;;3.17;;
40623;SDS011;26325;48.594;11.650;2023-05-14T10:16:49;2.80;;;2.70;;
40623;SDS011;26325;48.594;11.650;2023-05-14T10:19:19;3.58;;;3.28;;
40623;SDS011;26325;48.594;11.650;2023-05-14T10:21:55;3.30;;;3.10;;
40623;SDS011;26325;48.594;11.650;2023-05-14T10:24:24;3.45;;;3.25;;
40623;SDS011;26325;48.594;11.650;2023-05-14T10:26:50;3.20;;;3.00;;
40623;SDS011;26325;48.594;11.650;2023-05-14T10:29:16;2.78;;;2.58;;
40623;SDS011;26325;48.594;11.650;2023-05-14T10:31:53;3.10;;;2.80;;
40623;SDS011;26325;48.594;11.650;2023-05-14T10:34:39;3.50;;;3.25;;
40623;SDS011;26325;48.594;11.650;2023-05-14T10:37:09;3.08;;;2.88;;
40623;SDS011;26325;48.594;11.650;2023-05-14T10:39:46;2.95;;;2.75;;
40623;SDS011;26325;48.594;11.650;2023-05-14T10:44:57;2.72;;;2.50;;
40623;SDS011;26325;48.594;11.650;2023-05-14T10:47:35;2.90;;;2.70;;
40623;SDS011;26325;48.594;11.650;2023-05-14T10:50:04;2.95;;;2.75;;
40623;SDS011;26325;48.594;11.650;2023-05-14T10:52:31;3.10;;;2.90;;
40623;SDS011;26325;48.594;11.650;2023-05-14T10:55:03;2.40;;;2.30;;
40623;SDS011;26325;48.594;11.650;2023-05-14T10:57:34;2.63;;;2.42;;
40623;SDS011;26325;48.594;11.650;2023-05-14T11:00:02;2.75;;;2.50;;
40623;SDS011;26325;48.594;11.650;2023-05-14T11:02:36;2.90;;;2.70;;
40623;SDS011;26325;48.594;11.650;2023-05-14T11:05:05;2.30;;;2.10;;
40623;SDS011;26325;48.594;11.650;2023-05-14T11:07:38;2.60;;;2.40;;
40623;SDS011;26325;48.594;11.650;2023-05-14T11:12:42;2.40;;;2.20;;
40623;SDS011;26325;48.594;11.650;2023-05-14T11:15:14;2.63;;;2.53;;
40623;SDS011;26325;48.594;11.650;2023-05-14T11:17:43;2.60;;;2.50;;
40623;SDS011;26325;48.594;11.650;2023-05-14T11:20:12;2.50;;;2.40;;
40623;SDS011;26325;48.594;11.650;2023-05-14T11:22:39;2.83;;;2.70;;
40623;SDS011;26325;48.594;11.650;2023-05-14T11:25:07;2.85;;;2.67;;
40623;SDS011;26325;48.594;11.650;2023-05-14T11:27:39;2.80;;;2.60;;
40623;SDS011;26325;48.594;11.650;2023-05-14T11:30:27;2.67;;;2.47;;
40623;SDS011;26325;48.594;11.650;2023-05-14T11:35:19;2.88;;;2.78;;
40623;SDS011;26325;48.594;11.650;2023-05-14T11:37:49;2.50;;;2.40;;
40623;SDS011;26325;48.594;11.650;2023-05-14T11:40:18;3.05;;;2.90;;
40623;SDS011;26325;48.594;11.650;2023-05-14T11:42:44;2.78;;;2.67;;
40623;SDS011;26325;48.594;11.650;2023-05-14T11:45:11;2.80;;;2.60;;
40623;SDS011;26325;48.594;11.650;2023-05-14T11:47:38;2.60;;;2.50;;
40623;SDS011;26325;48.594;11.650;2023-05-14T11:50:05;2.90;;;2.70;;
40623;SDS011;26325;48.594;11.650;2023-05-14T11:52:36;2.47;;;2.30;;
40623;SDS011;26325;48.594;11.650;2023-05-14T11:55:04;2.47;;;2.30;;
40623;SDS011;26325;48.594;11.650;2023-05-14T11:57:30;2.42;;;2.30;;
40623;SDS011;26325;48.594;11.650;2023-05-14T11:59:56;3.00;;;2.80;;
40623;SDS011;26325;48.594;11.650;2023-05-14T12:02:22;3.00;;;2.80;;
40623;SDS011;26325;48.594;11.650;2023-05-14T12:07:17;3.28;;;2.97;;
40623;SDS011;26325;48.594;11.650;2023-05-14T12:09:47;3.00;;;2.80;;
40623;SDS011;26325;48.594;11.650;2023-05-14T12:12:18;3.60;;;3.40;;
40623;SDS011;26325;48.594;11.650;2023-05-14T12:14:49;3.33;;;3.13;;
40623;SDS011;26325;48.594;11.650;2023-05-14T12:19:47;3.50;;;3.30;;
40623;SDS011;26325;48.594;11.650;2023-05-14T12:22:20;3.65;;;3.35;;
40623;SDS011;26325;48.594;11.650;2023-05-14T12:24:54;4.15;;;3.50;;
40623;SDS011;26325;48.594;11.650;2023-05-14T12:27:23;3.83;;;3.63;;
40623;SDS011;26325;48.594;11.650;2023-05-14T12:30:04;3.65;;;3.35;;
40623;SDS011;26325;48.594;11.650;2023-05-14T12:32:37;3.88;;;3.67;;
40623;SDS011;26325;48.594;11.650;2023-05-14T12:35:05;3.05;;;2.85;;
40623;SDS011;26325;48.594;11.650;2023-05-14T12:37:33;3.30;;;3.10;;
40623;SDS011;26325;48.594;11.650;2023-05-14T12:40:04;3.15;;;2.95;;
40623;SDS011;26325;48.594;11.650;2023-05-14T12:42:33;3.03;;;2.80;;
40623;SDS011;26325;48.594;11.650;2023-05-14T12:44:59;3.03;;;2.80;;
40623;SDS011;26325;48.594;11.650;2023-05-14T12:47:29;2.75;;;2.58;;
40623;SDS011;26325;48.594;11.650;2023-05-14T12:49:56;2.50;;;2.38;;
40623;SDS011;26325;48.594;11.650;2023-05-14T12:52:21;2.67;;;2.50;;
40623;SDS011;26325;48.594;11.650;2023-05-14T12:54:48;3.13;;;2.92;;
40623;SDS011;26325;48.594;11.650;2023-05-14T12:57:14;2.78;;;2.60;;
40623;SDS011;26325;48.594;11.650;2023-05-14T12:59:40;3.15;;;2.90;;
40623;SDS011;26325;48.594;11.650;2023-05-14T13:02:08;2.78;;;2.60;;
40623;SDS011;26325;48.594;11.650;2023-05-14T13:04:33;2.70;;;2.60;;
40623;SDS011;26325;48.594;11.650;2023-05-14T13:06:59;2.80;;;2.60;;
40623;SDS011;26325;48.594;11.650;2023-05-14T13:09:27;2.40;;;2.30;;
40623;SDS011;26325;48.594;11.650;2023-05-14T13:11:54;2.00;;;1.90;;
40623;SDS011;26325;48.594;11.650;2023-05-14T13:14:23;2.08;;;1.98;;
40623;SDS011;26325;48.594;11.650;2023-05-14T13:16:48;2.13;;;1.92;;
40623;SDS011;26325;48.594;11.650;2023-05-14T13:19:14;2.10;;;2.00;;
40623;SDS011;26325;48.594;11.650;2023-05-14T13:21:39;1.83;;;1.73;;
40623;SDS011;26325;48.594;11.650;2023-05-14T13:24:08;1.90;;;1.80;;
40623;SDS011;26325;48.594;11.650;2023-05-14T13:26:36;2.00;;;1.90;;
40623;SDS011;26325;48.594;11.650;2023-05-14T13:29:02;2.22;;;2.13;;
40623;SDS011;26325;48.594;11.650;2023-05-14T13:31:27;2.10;;;2.00;;
40623;SDS011;26325;48.594;11.650;2023-05-14T13:33:53;1.98;;;1.88;;
40623;SDS011;26325;48.594;11.650;2023-05-14T13:36:19;2.10;;;2.00;;
40623;SDS011;26325;48.594;11.650;2023-05-14T13:38:45;1.77;;;1.67;;
40623;SDS011;26325;48.594;11.650;2023-05-14T13:41:12;2.00;;;1.90;;
40623;SDS011;26325;48.594;11.650;2023-05-14T13:43:38;1.80;;;1.70;;
40623;SDS011;26325;48.594;11.650;2023-05-14T13:46:04;1.80;;;1.70;;
40623;SDS011;26325;48.594;11.650;2023-05-14T13:48:30;1.92;;;1.83;;
40623;SDS011;26325;48.594;11.650;2023-05-14T13:50:57;1.75;;;1.65;;
40623;SDS011;26325;48.594;11.650;2023-05-14T13:53:23;2.00;;;1.80;;
40623;SDS011;26325;48.594;11.650;2023-05-14T13:55:49;1.70;;;1.60;;
40623;SDS011;26325;48.594;11.650;2023-05-14T13:58:21;1.63;;;1.52;;
40623;SDS011;26325;48.594;11.650;2023-05-14T14:00:51;2.03;;;1.75;;
40623;SDS011;26325;48.594;11.650;2023-05-14T14:03:17;1.90;;;1.80;;
40623;SDS011;26325;48.594;11.650;2023-05-14T14:05:42;1.80;;;1.70;;
40623;SDS011;26325;48.594;11.650;2023-05-14T14:08:08;1.75;;;1.65;;
40623;SDS011;26325;48.594;11.650;2023-05-14T14:10:33;1.80;;;1.70;;
40623;SDS011;26325;48.594;11.650;2023-05-14T14:13:00;1.83;;;1.70;;
40623;SDS011;26325;48.594;11.650;2023-05-14T14:15:26;1.83;;;1.73;;
40623;SDS011;26325;48.594;11.650;2023-05-14T14:17:52;2.05;;;1.95;;
40623;SDS011;26325;48.594;11.650;2023-05-14T14:20:17;1.92;;;1.83;;
40623;SDS011;26325;48.594;11.650;2023-05-14T14:22:43;1.67;;;1.60;;
40623;SDS011;26325;48.594;11.650;2023-05-14T14:25:09;1.70;;;1.60;;
40623;SDS011;26325;48.594;11.650;2023-05-14T14:27:37;2.00;;;1.90;;
40623;SDS011;26325;48.594;11.650;2023-05-14T14:30:09;2.00;;;1.90;;
40623;SDS011;26325;48.594;11.650;2023-05-14T14:32:44;2.10;;;1.90;;
40623;SDS011;26325;48.594;11.650;2023-05-14T14:35:13;2.90;;;2.15;;
40623;SDS011;26325;48.594;11.650;2023-05-14T14:37:43;2.05;;;1.95;;
40623;SDS011;26325;48.594;11.650;2023-05-14T14:40:15;2.10;;;2.00;;
40623;SDS011;26325;48.594;11.650;2023-05-14T14:42:41;2.20;;;2.00;;
40623;SDS011;26325;48.594;11.650;2023-05-14T14:45:07;1.80;;;1.70;;
40623;SDS011;26325;48.594;11.650;2023-05-14T14:47:33;2.40;;;2.30;;
40623;SDS011;26325;48.594;11.650;2023-05-14T14:49:59;2.42;;;2.33;;
40623;SDS011;26325;48.594;11.650;2023-05-14T14:52:25;2.22;;;2.13;;
40623;SDS011;26325;48.594;11.650;2023-05-14T14:54:53;2.53;;;2.33;;
40623;SDS011;26325;48.594;11.650;2023-05-14T14:57:20;2.20;;;2.10;;
40623;SDS011;26325;48.594;11.650;2023-05-14T14:59:46;2.53;;;2.42;;
40623;SDS011;26325;48.594;11.650;2023-05-14T15:02:12;2.38;;;2.28;;
40623;SDS011;26325;48.594;11.650;2023-05-14T15:04:38;2.85;;;2.38;;
40623;SDS011;26325;48.594;11.650;2023-05-14T15:07:04;2.67;;;2.17;;
40623;SDS011;26325;48.594;11.650;2023-05-14T15:09:30;2.10;;;2.00;;
40623;SDS011;26325;48.594;11.650;2023-05-14T15:11:56;3.03;;;2.08;;
40623;SDS011;26325;48.594;11.650;2023-05-14T15:14:21;2.05;;;1.90;;
40623;SDS011;26325;48.594;11.650;2023-05-14T15:16:47;2.10;;;2.00;;
40623;SDS011;26325;48.594;11.650;2023-05-14T15:19:13;2.80;;;2.13;;
40623;SDS011;26325;48.594;11.650;2023-05-14T15:21:38;1.90;;;1.80;;
40623;SDS011;26325;48.594;11.650;2023-05-14T15:24:04;1.90;;;1.80;;
40623;SDS011;26325;48.594;11.650;2023-05-14T15:26:30;1.77;;;1.67;;
40623;SDS011;26325;48.594;11.650;2023-05-14T15:28:59;1.88;;;1.77;;
40623;SDS011;26325;48.594;11.650;2023-05-14T15:31:25;1.70;;;1.60;;
40623;SDS011;26325;48.594;11.650;2023-05-14T15:33:52;1.90;;;1.80;;
40623;SDS011;26325;48.594;11.650;2023-05-14T15:36:20;1.92;;;1.83;;
40623;SDS011;26325;48.594;11.650;2023-05-14T15:38:46;1.90;;;1.80;;
40623;SDS011;26325;48.594;11.650;2023-05-14T15:43:37;1.90;;;1.80;;
40623;SDS011;26325;48.594;11.650;2023-05-14T15:48:28;1.85;;;1.75;;
40623;SDS011;26325;48.594;11.650;2023-05-14T15:50:54;1.70;;;1.60;;
40623;SDS011;26325;48.594;11.650;2023-05-14T15:53:23;2.38;;;1.77;;
40623;SDS011;26325;48.594;11.650;2023-05-14T15:55:50;1.92;;;1.55;;
40623;SDS011;26325;48.594;11.650;2023-05-14T16:00:41;2.25;;;1.48;;
40623;SDS011;26325;48.594;11.650;2023-05-14T16:05:34;1.93;;;1.33;;
40623;SDS011;26325;48.594;11.650;2023-05-14T16:08:00;1.35;;;1.27;;
40623;SDS011;26325;48.594;11.650;2023-05-14T16:12:51;1.35;;;1.30;;
40623;SDS011;26325;48.594;11.650;2023-05-14T16:15:18;1.40;;;1.30;;
40623;SDS011;26325;48.594;11.650;2023-05-14T16:17:44;1.40;;;1.30;;
40623;SDS011;26325;48.594;11.650;2023-05-14T16:22:35;1.55;;;1.45;;
40623;SDS011;26325;48.594;11.650;2023-05-14T16:27:28;1.50;;;1.35;;
40623;SDS011;26325;48.594;11.650;2023-05-14T16:32:19;1.48;;;1.38;;
40623;SDS011;26325;48.594;11.650;2023-05-14T16:34:45;1.63;;;1.30;;
40623;SDS011;26325;48.594;11.650;2023-05-14T16:37:17;1.30;;;1.20;;
40623;SDS011;26325;48.594;11.650;2023-05-14T16:39:45;1.23;;;1.13;;
40623;SDS011;26325;48.594;11.650;2023-05-14T16:42:10;1.55;;;1.20;;
40623;SDS011;26325;48.594;11.650;2023-05-14T16:47:01;1.45;;;1.35;;
40623;SDS011;26325;48.594;11.650;2023-05-14T16:49:29;1.40;;;1.30;;
40623;SDS011;26325;48.594;11.650;2023-05-14T16:54:20;1.38;;;1.27;;
40623;SDS011;26325;48.594;11.650;2023-05-14T16:56:46;1.30;;;1.20;;
40623;SDS011;26325;48.594;11.650;2023-05-14T17:01:45;1.20;;;1.10;;
40623;SDS011;26325;48.594;11.650;2023-05-14T17:04:12;1.20;;;1.10;;
40623;SDS011;26325;48.594;11.650;2023-05-14T17:09:05;1.13;;;1.02;;
40623;SDS011;26325;48.594;11.650;2023-05-14T17:11:31;1.10;;;1.10;;
40623;SDS011;26325;48.594;11.650;2023-05-14T17:16:22;1.00;;;1.00;;
40623;SDS011;26325;48.594;11.650;2023-05-14T17:18:51;1.40;;;1.30;;
40623;SDS011;26325;48.594;11.650;2023-05-14T17:21:17;1.30;;;1.20;;
40623;SDS011;26325;48.594;11.650;2023-05-14T17:26:08;1.35;;;1.25;;
40623;SDS011;26325;48.594;11.650;2023-05-14T17:28:37;1.45;;;1.35;;
40623;SDS011;26325;48.594;11.650;2023-05-14T17:31:02;1.75;;;1.65;;
40623;SDS011;26325;48.594;11.650;2023-05-14T17:35:56;1.50;;;1.40;;
40623;SDS011;26325;48.594;11.650;2023-05-14T17:38:21;1.60;;;1.50;;
40623;SDS011;26325;48.594;11.650;2023-05-14T17:40:48;1.17;;;1.17;;
40623;SDS011;26325;48.594;11.650;2023-05-14T17:45:42;1.27;;;1.13;;
40623;SDS011;26325;48.594;11.650;2023-05-14T17:50:35;1.60;;;1.50;;
40623;SDS011;26325;48.594;11.650;2023-05-14T17:53:03;1.55;;;1.45;;
40623;SDS011;26325;48.594;11.650;2023-05-14T17:57:55;1.50;;;1.40;;
40623;SDS011;26325;48.594;11.650;2023-05-14T18:00:20;1.65;;;1.55;;
40623;SDS011;26325;48.594;11.650;2023-05-14T18:05:12;1.55;;;1.45;;
40623;SDS011;26325;48.594;11.650;2023-05-14T18:10:03;1.20;;;1.20;;
40623;SDS011;26325;48.594;11.650;2023-05-14T18:12:29;1.42;;;1.33;;
40623;SDS011;26325;48.594;11.650;2023-05-14T18:17:22;1.50;;;1.40;;
40623;SDS011;26325;48.594;11.650;2023-05-14T18:19:48;1.25;;;1.25;;
40623;SDS011;26325;48.594;11.650;2023-05-14T18:24:39;1.45;;;1.35;;
40623;SDS011;26325;48.594;11.650;2023-05-14T18:29:30;1.40;;;1.30;;
40623;SDS011;26325;48.594;11.650;2023-05-14T18:34:24;1.63;;;1.27;;
40623;SDS011;26325;48.594;11.650;2023-05-14T18:39:15;1.63;;;1.40;;
40623;SDS011;26325;48.594;11.650;2023-05-14T18:44:06;1.60;;;1.50;;
40623;SDS011;26325;48.594;11.650;2023-05-14T18:46:36;1.70;;;1.60;;
40623;SDS011;26325;48.594;11.650;2023-05-14T18:49:02;1.60;;;1.50;;
40623;SDS011;26325;48.594;11.650;2023-05-14T18:53:53;2.47;;;1.35;;
40623;SDS011;26325;48.594;11.650;2023-05-14T18:56:19;1.60;;;1.50;;